Quick Links (Output Below):   Max & Min Temps   /   Climate Reports   /   Zone Forecasts
River Forecasts   /   Forestry Forecasts   /   Aviation Forecasts   /   Radars   /   Features

Terminal Aerodrome Forecast (Hot Springs)

Pick a Site:
Arkadelphia | El Dorado | Fayetteville | Fort Smith | Harrison | Highfill | Hot Springs | Jonesboro
Little Rock | Monticello | Mountain Home | Pine Bluff | Texarkana
 Forecast 

KHOT 021120Z 0212/0312 20006KT P6SM OVC015
      TEMPO 0213/0214 5SM -SHRA OVC010
     FM021500 22007KT P6SM BKN020 OVC040
     FM021900 20007KT P6SM SCT025 BKN040
     FM030100 19006KT P6SM SCT080
     FM030800 20006KT 5SM BR SCT015 BKN250
      AMD NOT SKED=


 Latest METARs (Observations) 
How to Decode METARs
17Z KHOT 021653Z AUTO 35006KT -TSRA SCT028 BKN048 OVC065 24/21 A3010
         RMK AO2 RAB40 TSB53 SLP184 P0000 T02440206 $
         
16Z KHOT 021553Z AUTO 26004KT SCT022 SCT033 BKN043 29/23 A3008 RMK AO2
         SLP176 T02940228 $
         
15Z KHOT 021453Z AUTO 23006KT FEW016 BKN024 BKN090 28/23 A3005 RMK AO2
         SLP168 T02830228 51013 $
         
14Z KHOT 021353Z AUTO 19003KT BKN013 BKN021 OVC032 27/23 A3005 RMK AO2
         SLP168 T02670233 $
         
13Z KHOT 021253Z AUTO 16004KT BKN036 26/23 A3003 RMK AO2 SLP161
         T02610233 $
         
12Z KHOT 021153Z AUTO 14003KT OVC030 26/23 A3001 RMK AO2 SLP155
         T02610233 10267 20256 53020 $
         
11Z KHOT 021053Z AUTO 24004KT BKN014 OVC023 26/23 A2999 RMK AO2 SLP148
         T02560233 $
         
10Z KHOT 020953Z AUTO 22004KT OVC014 26/23 A2997 RMK AO2 SLP142
         T02610233 $
         
09Z KHOT 020853Z AUTO 20007KT OVC014 26/23 A2995 RMK AO2 SLP135
         T02610233 55004 $
         
08Z KHOT 020753Z AUTO 18006KT CLR 26/23 A2993 RMK AO2 SLP126 T02610228
         $
         
***** Today's Observations (Above) *****


Back to Main Page
http://www.srh.noaa.gov/lzk/qfcst.php

USA.gov is the U.S. government's official web portal to all federal, state and local government web resources and services.